Main page
METAR-TAF:

METAR-TAF

Airports :

São Paulo–Congonhas Airport

São Paulo, São Paulo, Brazil

latitude: 23-37S, longitude: 046-39W, elevation: 803 m

Current weather observation

The report was made 1 hour and 8 minutes ago, at 11:00 UTC
Wind 2 kt from variable directions
Temperature 13°C
Humidity 94%
Pressure 1022 hPa
Visibility: 0300 m
fog

METAR: SBSP 121100Z VRB02KT 0300 R17/0275N R35/0300N FG NSC 13/12 Q1022

Time: 09:08 (12:08 UTC)

Forecast

The report was made 6 hours and 28 minutes ago, at 05:40 UTC
Forecast valid from 12 at 12 UTC to 12 at 24 UTC
Wind 5 kt from the Southwest
Visibility 10 km or more
no clouds below 1500 m and no cumulonimbus
Becoming
from 12 at 17 UTC to 12 at 19 UTC
Wind 7 kt from the South
Becoming
from 12 at 19 UTC to 12 at 21 UTC
Wind 7 kt from the South/Southeast
Broken clouds at a height of 1000 ft

TAF: SBSP 120540Z 1212/1224 22005KT CAVOK TX19/1217Z TN14/1224Z BECMG 1217/1219 19007KT BECMG 1219/1221 16007KT BKN010 RMK PHG

Weather observations and forecasts of more than 4000 airports (METAR and TAF reports).

The available stations are represented by yellow and red dots on the map.

Hover mouse over dot to see the name of the station.

Then click to see weather observations and forecasts.

To change the map : click on the green buttons with a black cross to zoom in, on the green button with a dash to zoom out, or on the green arrows for adjacent maps.


METAR-TAF: